sensor_id;sensor_type;location;lat;lon;timestamp;noise_LAeq;noise_LA_min;noise_LA_max;noise_LA01;noise_LA95
67398;Laerm;57728;50.448;18.824;2022-10-20T00:00:44;35.46;31.83;38.88;;
67398;Laerm;57728;50.448;18.824;2022-10-20T00:02:45;35.95;33.95;39.61;;
67398;Laerm;57728;50.448;18.824;2022-10-20T00:04:46;35.21;31.98;38.30;;
67398;Laerm;57728;50.448;18.824;2022-10-20T00:06:49;34.89;31.41;37.86;;
67398;Laerm;57728;50.448;18.824;2022-10-20T00:08:53;34.84;31.44;38.94;;
67398;Laerm;57728;50.448;18.824;2022-10-20T00:10:55;34.63;31.51;37.72;;
67398;Laerm;57728;50.448;18.824;2022-10-20T00:12:57;34.91;31.40;38.38;;
67398;Laerm;57728;50.448;18.824;2022-10-20T00:14:58;34.56;31.46;39.43;;
67398;Laerm;57728;50.448;18.824;2022-10-20T00:17:00;35.22;31.13;38.55;;
67398;Laerm;57728;50.448;18.824;2022-10-20T00:19:03;35.81;32.06;40.50;;
67398;Laerm;57728;50.448;18.824;2022-10-20T00:21:12;35.09;31.80;37.50;;
67398;Laerm;57728;50.448;18.824;2022-10-20T00:23:14;35.54;32.04;37.58;;
67398;Laerm;57728;50.448;18.824;2022-10-20T00:25:16;35.06;31.45;39.65;;
67398;Laerm;57728;50.448;18.824;2022-10-20T00:27:17;34.72;31.58;37.01;;
67398;Laerm;57728;50.448;18.824;2022-10-20T00:29:19;34.11;31.17;36.67;;
67398;Laerm;57728;50.448;18.824;2022-10-20T00:31:23;34.28;31.30;39.23;;
67398;Laerm;57728;50.448;18.824;2022-10-20T00:33:25;34.21;31.13;36.75;;
67398;Laerm;57728;50.448;18.824;2022-10-20T00:35:27;34.07;31.18;36.28;;
67398;Laerm;57728;50.448;18.824;2022-10-20T00:37:32;34.47;31.27;38.00;;
67398;Laerm;57728;50.448;18.824;2022-10-20T00:39:33;34.47;31.17;37.77;;
67398;Laerm;57728;50.448;18.824;2022-10-20T00:41:34;36.79;31.40;49.26;;
67398;Laerm;57728;50.448;18.824;2022-10-20T00:45:56;34.51;31.32;38.06;;
67398;Laerm;57728;50.448;18.824;2022-10-20T00:48:13;34.88;31.51;40.45;;
67398;Laerm;57728;50.448;18.824;2022-10-20T00:50:25;35.00;31.38;39.92;;
67398;Laerm;57728;50.448;18.824;2022-10-20T00:52:27;35.11;31.77;38.69;;
67398;Laerm;57728;50.448;18.824;2022-10-20T00:54:29;34.74;31.45;37.70;;
67398;Laerm;57728;50.448;18.824;2022-10-20T00:56:33;34.74;31.59;37.14;;
67398;Laerm;57728;50.448;18.824;2022-10-20T00:58:37;35.88;32.20;39.48;;
67398;Laerm;57728;50.448;18.824;2022-10-20T01:00:41;34.81;31.29;39.28;;
67398;Laerm;57728;50.448;18.824;2022-10-20T01:02:51;35.18;31.40;37.33;;
67398;Laerm;57728;50.448;18.824;2022-10-20T01:04:53;34.75;31.26;37.86;;
67398;Laerm;57728;50.448;18.824;2022-10-20T01:06:55;34.73;31.50;39.57;;
67398;Laerm;57728;50.448;18.824;2022-10-20T01:08:59;35.44;31.34;42.75;;
67398;Laerm;57728;50.448;18.824;2022-10-20T01:31:41;36.00;32.24;39.56;;
67398;Laerm;57728;50.448;18.824;2022-10-20T01:36:38;35.48;31.35;43.06;;
67398;Laerm;57728;50.448;18.824;2022-10-20T01:39:14;35.60;31.80;37.79;;
67398;Laerm;57728;50.448;18.824;2022-10-20T01:41:52;35.76;32.55;38.01;;
67398;Laerm;57728;50.448;18.824;2022-10-20T01:44:16;35.59;32.10;37.39;;
67398;Laerm;57728;50.448;18.824;2022-10-20T01:46:39;35.49;31.72;38.74;;
67398;Laerm;57728;50.448;18.824;2022-10-20T01:49:01;35.64;31.51;44.56;;
67398;Laerm;57728;50.448;18.824;2022-10-20T01:51:18;36.58;33.40;49.53;;
67398;Laerm;57728;50.448;18.824;2022-10-20T01:53:35;35.43;32.86;51.01;;
67398;Laerm;57728;50.448;18.824;2022-10-20T01:55:39;36.90;33.33;55.13;;
67398;Laerm;57728;50.448;18.824;2022-10-20T02:00:17;35.45;32.85;44.85;;
67398;Laerm;57728;50.448;18.824;2022-10-20T02:03:09;34.83;32.82;44.86;;
67398;Laerm;57728;50.448;18.824;2022-10-20T02:10:56;36.90;32.68;58.77;;
67398;Laerm;57728;50.448;18.824;2022-10-20T02:13:05;36.00;33.45;45.89;;
67398;Laerm;57728;50.448;18.824;2022-10-20T02:15:15;34.97;33.01;45.13;;
67398;Laerm;57728;50.448;18.824;2022-10-20T02:17:20;35.31;33.05;46.94;;
67398;Laerm;57728;50.448;18.824;2022-10-20T02:19:28;35.04;33.29;44.23;;
67398;Laerm;57728;50.448;18.824;2022-10-20T02:21:32;35.39;33.15;48.42;;
67398;Laerm;57728;50.448;18.824;2022-10-20T02:23:39;36.75;33.32;52.44;;
67398;Laerm;57728;50.448;18.824;2022-10-20T02:25:48;36.42;33.30;54.49;;
67398;Laerm;57728;50.448;18.824;2022-10-20T02:27:56;35.35;33.23;40.14;;
67398;Laerm;57728;50.448;18.824;2022-10-20T02:30:08;35.58;33.51;47.69;;
67398;Laerm;57728;50.448;18.824;2022-10-20T02:32:12;35.03;33.54;37.98;;
67398;Laerm;57728;50.448;18.824;2022-10-20T02:34:16;35.32;33.45;45.51;;
67398;Laerm;57728;50.448;18.824;2022-10-20T02:36:20;35.23;33.57;38.82;;
67398;Laerm;57728;50.448;18.824;2022-10-20T02:38:25;35.02;33.75;36.94;;
67398;Laerm;57728;50.448;18.824;2022-10-20T02:40:27;35.25;33.64;38.22;;
67398;Laerm;57728;50.448;18.824;2022-10-20T02:42:29;34.93;33.62;37.17;;
67398;Laerm;57728;50.448;18.824;2022-10-20T02:44:30;35.11;33.79;36.70;;
67398;Laerm;57728;50.448;18.824;2022-10-20T02:46:32;35.95;33.92;42.51;;
67398;Laerm;57728;50.448;18.824;2022-10-20T02:48:33;35.22;33.11;37.00;;
67398;Laerm;57728;50.448;18.824;2022-10-20T02:50:38;35.81;33.80;45.88;;
67398;Laerm;57728;50.448;18.824;2022-10-20T02:52:39;35.65;34.04;41.67;;
67398;Laerm;57728;50.448;18.824;2022-10-20T02:54:40;35.44;33.70;49.40;;
67398;Laerm;57728;50.448;18.824;2022-10-20T02:56:42;35.30;33.88;38.56;;
67398;Laerm;57728;50.448;18.824;2022-10-20T02:58:43;35.22;33.89;39.57;;
67398;Laerm;57728;50.448;18.824;2022-10-20T03:00:49;35.25;33.93;36.92;;
67398;Laerm;57728;50.448;18.824;2022-10-20T03:02:51;35.66;33.96;42.96;;
67398;Laerm;57728;50.448;18.824;2022-10-20T03:04:53;35.60;34.15;40.98;;
67398;Laerm;57728;50.448;18.824;2022-10-20T03:06:55;35.77;33.32;37.90;;
67398;Laerm;57728;50.448;18.824;2022-10-20T03:08:57;35.76;33.60;38.20;;
67398;Laerm;57728;50.448;18.824;2022-10-20T03:10:58;35.74;34.33;37.77;;
67398;Laerm;57728;50.448;18.824;2022-10-20T03:12:59;35.90;34.21;42.28;;
67398;Laerm;57728;50.448;18.824;2022-10-20T03:15:01;36.35;34.25;48.10;;
67398;Laerm;57728;50.448;18.824;2022-10-20T03:17:02;36.79;34.87;44.80;;
67398;Laerm;57728;50.448;18.824;2022-10-20T03:19:04;36.30;34.14;41.16;;
67398;Laerm;57728;50.448;18.824;2022-10-20T03:21:06;36.91;34.65;46.34;;
67398;Laerm;57728;50.448;18.824;2022-10-20T03:23:07;38.19;34.67;48.71;;
67398;Laerm;57728;50.448;18.824;2022-10-20T03:25:08;38.06;34.69;49.18;;
67398;Laerm;57728;50.448;18.824;2022-10-20T03:27:10;36.57;34.74;43.74;;
67398;Laerm;57728;50.448;18.824;2022-10-20T03:29:11;36.48;34.86;42.72;;
67398;Laerm;57728;50.448;18.824;2022-10-20T03:31:14;37.60;34.96;47.33;;
67398;Laerm;57728;50.448;18.824;2022-10-20T03:33:16;37.05;35.04;46.24;;
67398;Laerm;57728;50.448;18.824;2022-10-20T03:35:17;37.64;35.44;51.62;;
67398;Laerm;57728;50.448;18.824;2022-10-20T03:37:18;38.08;34.99;48.85;;
67398;Laerm;57728;50.448;18.824;2022-10-20T03:39:20;38.77;35.62;45.83;;
67398;Laerm;57728;50.448;18.824;2022-10-20T03:41:21;37.68;35.07;47.78;;
67398;Laerm;57728;50.448;18.824;2022-10-20T03:43:23;38.01;35.07;49.90;;
67398;Laerm;57728;50.448;18.824;2022-10-20T03:45:25;36.98;34.88;41.62;;
67398;Laerm;57728;50.448;18.824;2022-10-20T03:47:26;38.20;34.81;48.89;;
67398;Laerm;57728;50.448;18.824;2022-10-20T03:49:27;37.93;35.14;50.43;;
67398;Laerm;57728;50.448;18.824;2022-10-20T03:51:29;37.52;33.85;45.50;;
67398;Laerm;57728;50.448;18.824;2022-10-20T03:53:31;37.21;35.03;47.67;;
67398;Laerm;57728;50.448;18.824;2022-10-20T03:55:32;37.18;35.07;43.20;;
67398;Laerm;57728;50.448;18.824;2022-10-20T03:57:35;36.80;34.81;45.34;;
67398;Laerm;57728;50.448;18.824;2022-10-20T03:59:36;37.10;35.01;46.12;;
67398;Laerm;57728;50.448;18.824;2022-10-20T04:01:44;36.57;34.76;43.82;;
67398;Laerm;57728;50.448;18.824;2022-10-20T04:03:46;37.99;34.74;52.30;;
67398;Laerm;57728;50.448;18.824;2022-10-20T04:05:48;37.10;34.89;41.85;;
67398;Laerm;57728;50.448;18.824;2022-10-20T04:07:49;38.72;35.63;48.25;;
67398;Laerm;57728;50.448;18.824;2022-10-20T04:09:51;37.01;35.40;44.21;;
67398;Laerm;57728;50.448;18.824;2022-10-20T04:11:54;38.21;35.27;46.29;;
67398;Laerm;57728;50.448;18.824;2022-10-20T04:13:56;41.83;35.89;54.81;;
67398;Laerm;57728;50.448;18.824;2022-10-20T04:15:58;39.88;35.70;53.67;;
67398;Laerm;57728;50.448;18.824;2022-10-20T04:17:59;39.45;35.87;52.89;;
67398;Laerm;57728;50.448;18.824;2022-10-20T04:20:03;38.01;35.87;43.87;;
67398;Laerm;57728;50.448;18.824;2022-10-20T04:22:06;38.54;36.09;46.20;;
67398;Laerm;57728;50.448;18.824;2022-10-20T04:24:07;41.86;36.00;54.63;;
67398;Laerm;57728;50.448;18.824;2022-10-20T04:26:14;38.83;36.38;49.91;;
67398;Laerm;57728;50.448;18.824;2022-10-20T04:28:19;38.41;35.60;50.74;;
67398;Laerm;57728;50.448;18.824;2022-10-20T04:30:20;40.53;35.68;52.93;;
67398;Laerm;57728;50.448;18.824;2022-10-20T04:32:21;42.86;36.20;63.19;;
67398;Laerm;57728;50.448;18.824;2022-10-20T04:34:23;40.68;36.51;53.10;;
67398;Laerm;57728;50.448;18.824;2022-10-20T04:36:25;38.99;36.21;56.75;;
67398;Laerm;57728;50.448;18.824;2022-10-20T04:38:28;44.52;36.16;56.44;;
67398;Laerm;57728;50.448;18.824;2022-10-20T04:40:31;40.46;36.60;50.14;;
67398;Laerm;57728;50.448;18.824;2022-10-20T04:42:32;39.69;36.98;46.51;;
67398;Laerm;57728;50.448;18.824;2022-10-20T04:44:33;40.36;37.00;49.20;;
67398;Laerm;57728;50.448;18.824;2022-10-20T04:46:36;40.25;37.17;49.03;;
67398;Laerm;57728;50.448;18.824;2022-10-20T04:48:42;40.45;36.47;51.18;;
67398;Laerm;57728;50.448;18.824;2022-10-20T04:50:46;40.27;36.73;51.61;;
67398;Laerm;57728;50.448;18.824;2022-10-20T04:52:48;41.96;36.94;65.00;;
67398;Laerm;57728;50.448;18.824;2022-10-20T04:54:51;42.27;37.31;61.43;;
67398;Laerm;57728;50.448;18.824;2022-10-20T04:56:52;40.15;37.08;49.31;;
67398;Laerm;57728;50.448;18.824;2022-10-20T04:58:57;40.69;37.28;57.29;;
67398;Laerm;57728;50.448;18.824;2022-10-20T05:01:09;41.94;37.62;60.47;;
67398;Laerm;57728;50.448;18.824;2022-10-20T05:03:10;41.44;37.03;55.56;;
67398;Laerm;57728;50.448;18.824;2022-10-20T05:05:14;40.88;36.74;51.89;;
67398;Laerm;57728;50.448;18.824;2022-10-20T05:07:15;40.51;37.16;51.05;;
67398;Laerm;57728;50.448;18.824;2022-10-20T05:09:16;40.92;37.13;53.29;;
67398;Laerm;57728;50.448;18.824;2022-10-20T05:11:21;39.93;36.83;46.06;;
67398;Laerm;57728;50.448;18.824;2022-10-20T05:13:22;39.90;37.55;52.17;;
67398;Laerm;57728;50.448;18.824;2022-10-20T05:15:23;41.04;37.63;58.31;;
67398;Laerm;57728;50.448;18.824;2022-10-20T05:17:28;41.23;37.67;49.27;;
67398;Laerm;57728;50.448;18.824;2022-10-20T05:19:30;41.53;36.59;53.58;;
67398;Laerm;57728;50.448;18.824;2022-10-20T05:21:31;40.32;37.01;51.31;;
67398;Laerm;57728;50.448;18.824;2022-10-20T05:23:34;40.13;37.34;47.23;;
67398;Laerm;57728;50.448;18.824;2022-10-20T05:25:37;44.53;37.57;57.97;;
67398;Laerm;57728;50.448;18.824;2022-10-20T05:27:39;40.97;37.27;49.27;;
67398;Laerm;57728;50.448;18.824;2022-10-20T05:29:40;44.54;38.15;60.61;;
67398;Laerm;57728;50.448;18.824;2022-10-20T05:31:43;51.28;37.79;62.85;;
67398;Laerm;57728;50.448;18.824;2022-10-20T05:33:51;44.22;37.53;59.74;;
67398;Laerm;57728;50.448;18.824;2022-10-20T05:35:53;42.16;37.65;53.08;;
67398;Laerm;57728;50.448;18.824;2022-10-20T05:37:55;39.94;37.14;47.30;;
67398;Laerm;57728;50.448;18.824;2022-10-20T05:39:56;42.58;37.55;50.35;;
67398;Laerm;57728;50.448;18.824;2022-10-20T05:42:00;41.71;37.97;50.14;;
67398;Laerm;57728;50.448;18.824;2022-10-20T05:44:05;45.55;39.19;58.95;;
67398;Laerm;57728;50.448;18.824;2022-10-20T05:46:08;47.90;41.13;60.18;;
67398;Laerm;57728;50.448;18.824;2022-10-20T05:48:10;49.92;41.08;64.66;;
67398;Laerm;57728;50.448;18.824;2022-10-20T05:50:11;44.07;39.08;52.90;;
67398;Laerm;57728;50.448;18.824;2022-10-20T05:52:13;45.83;40.85;54.92;;
67398;Laerm;57728;50.448;18.824;2022-10-20T05:54:15;46.99;41.08;56.12;;
67398;Laerm;57728;50.448;18.824;2022-10-20T05:56:20;45.22;40.63;56.61;;
67398;Laerm;57728;50.448;18.824;2022-10-20T05:58:21;46.95;40.58;55.19;;
67398;Laerm;57728;50.448;18.824;2022-10-20T06:00:24;45.78;39.42;59.45;;
67398;Laerm;57728;50.448;18.824;2022-10-20T06:02:32;45.15;38.86;58.86;;
67398;Laerm;57728;50.448;18.824;2022-10-20T06:04:34;44.06;38.99;53.82;;
67398;Laerm;57728;50.448;18.824;2022-10-20T06:06:36;43.04;38.32;55.76;;
67398;Laerm;57728;50.448;18.824;2022-10-20T06:08:38;43.26;38.99;51.71;;
67398;Laerm;57728;50.448;18.824;2022-10-20T06:10:39;43.86;39.00;53.45;;
67398;Laerm;57728;50.448;18.824;2022-10-20T06:12:42;43.79;39.38;55.24;;
67398;Laerm;57728;50.448;18.824;2022-10-20T06:14:43;45.86;39.19;63.52;;
67398;Laerm;57728;50.448;18.824;2022-10-20T06:16:44;49.61;38.48;76.79;;
67398;Laerm;57728;50.448;18.824;2022-10-20T06:18:47;42.64;38.83;51.62;;
67398;Laerm;57728;50.448;18.824;2022-10-20T06:20:48;43.56;37.95;55.27;;
67398;Laerm;57728;50.448;18.824;2022-10-20T06:22:58;44.10;38.44;53.92;;
67398;Laerm;57728;50.448;18.824;2022-10-20T06:25:01;42.61;37.91;53.81;;
67398;Laerm;57728;50.448;18.824;2022-10-20T06:27:02;40.89;37.03;52.96;;
67398;Laerm;57728;50.448;18.824;2022-10-20T06:29:13;41.10;37.23;53.57;;
67398;Laerm;57728;50.448;18.824;2022-10-20T06:31:19;42.17;37.63;51.41;;
67398;Laerm;57728;50.448;18.824;2022-10-20T06:33:21;49.35;36.37;75.85;;
67398;Laerm;57728;50.448;18.824;2022-10-20T06:35:22;42.19;37.07;53.63;;
67398;Laerm;57728;50.448;18.824;2022-10-20T06:37:24;40.04;36.05;52.50;;
67398;Laerm;57728;50.448;18.824;2022-10-20T06:39:25;41.46;35.89;66.94;;
67398;Laerm;57728;50.448;18.824;2022-10-20T06:41:27;42.20;35.74;58.57;;
67398;Laerm;57728;50.448;18.824;2022-10-20T06:43:30;41.27;35.33;53.95;;
67398;Laerm;57728;50.448;18.824;2022-10-20T06:45:32;40.23;35.44;53.19;;
67398;Laerm;57728;50.448;18.824;2022-10-20T06:47:33;39.12;35.76;52.40;;
67398;Laerm;57728;50.448;18.824;2022-10-20T06:49:35;40.34;35.84;49.97;;
67398;Laerm;57728;50.448;18.824;2022-10-20T06:51:37;38.75;35.51;45.26;;
67398;Laerm;57728;50.448;18.824;2022-10-20T06:53:41;37.11;34.45;42.09;;
67398;Laerm;57728;50.448;18.824;2022-10-20T06:55:43;37.30;34.19;43.97;;
67398;Laerm;57728;50.448;18.824;2022-10-20T06:57:45;38.49;34.43;51.58;;
67398;Laerm;57728;50.448;18.824;2022-10-20T06:59:46;37.29;35.08;50.38;;
67398;Laerm;57728;50.448;18.824;2022-10-20T07:01:50;37.85;34.50;49.57;;
67398;Laerm;57728;50.448;18.824;2022-10-20T07:03:56;39.24;34.78;55.58;;
67398;Laerm;57728;50.448;18.824;2022-10-20T07:05:59;39.71;35.57;47.70;;
67398;Laerm;57728;50.448;18.824;2022-10-20T07:08:01;44.70;35.21;68.76;;
67398;Laerm;57728;50.448;18.824;2022-10-20T07:10:02;40.07;35.48;53.83;;
67398;Laerm;57728;50.448;18.824;2022-10-20T07:12:04;38.95;34.97;55.02;;
67398;Laerm;57728;50.448;18.824;2022-10-20T07:14:06;39.56;34.58;62.86;;
67398;Laerm;57728;50.448;18.824;2022-10-20T07:16:13;38.29;34.16;52.71;;
67398;Laerm;57728;50.448;18.824;2022-10-20T07:18:15;36.96;33.93;45.95;;
67398;Laerm;57728;50.448;18.824;2022-10-20T07:20:17;39.07;32.97;56.66;;
67398;Laerm;57728;50.448;18.824;2022-10-20T07:22:18;39.35;33.01;59.43;;
67398;Laerm;57728;50.448;18.824;2022-10-20T07:24:19;36.43;32.85;50.61;;
67398;Laerm;57728;50.448;18.824;2022-10-20T07:26:28;38.41;34.12;49.94;;
67398;Laerm;57728;50.448;18.824;2022-10-20T07:28:31;40.33;32.62;68.25;;
67398;Laerm;57728;50.448;18.824;2022-10-20T07:30:41;42.78;33.53;67.37;;
67398;Laerm;57728;50.448;18.824;2022-10-20T07:32:43;36.51;33.45;47.51;;
67398;Laerm;57728;50.448;18.824;2022-10-20T07:34:44;40.63;33.79;65.23;;
67398;Laerm;57728;50.448;18.824;2022-10-20T07:36:45;37.96;33.60;60.13;;
67398;Laerm;57728;50.448;18.824;2022-10-20T07:38:50;39.80;33.66;52.94;;
67398;Laerm;57728;50.448;18.824;2022-10-20T07:40:52;45.50;33.10;58.15;;
67398;Laerm;57728;50.448;18.824;2022-10-20T07:42:53;54.45;35.00;61.01;;
67398;Laerm;57728;50.448;18.824;2022-10-20T07:44:55;55.09;36.65;63.69;;
67398;Laerm;57728;50.448;18.824;2022-10-20T07:46:57;52.87;32.66;59.50;;
67398;Laerm;57728;50.448;18.824;2022-10-20T07:48:58;54.04;37.79;59.43;;
67398;Laerm;57728;50.448;18.824;2022-10-20T07:53:30;54.97;33.65;63.58;;
67398;Laerm;57728;50.448;18.824;2022-10-20T07:55:32;56.49;32.46;62.23;;
67398;Laerm;57728;50.448;18.824;2022-10-20T07:57:35;56.59;36.43;62.00;;
67398;Laerm;57728;50.448;18.824;2022-10-20T07:59:36;58.69;36.30;64.73;;
67398;Laerm;57728;50.448;18.824;2022-10-20T08:01:38;58.26;38.61;64.54;;
67398;Laerm;57728;50.448;18.824;2022-10-20T08:03:40;57.07;31.99;63.93;;
67398;Laerm;57728;50.448;18.824;2022-10-20T08:05:41;57.32;31.74;63.97;;
67398;Laerm;57728;50.448;18.824;2022-10-20T08:07:43;58.44;40.34;63.26;;
67398;Laerm;57728;50.448;18.824;2022-10-20T08:09:45;59.38;37.75;64.93;;
67398;Laerm;57728;50.448;18.824;2022-10-20T08:11:47;56.22;31.49;63.51;;
67398;Laerm;57728;50.448;18.824;2022-10-20T08:13:48;47.07;31.35;58.91;;
67398;Laerm;57728;50.448;18.824;2022-10-20T08:15:51;35.52;31.26;49.51;;
67398;Laerm;57728;50.448;18.824;2022-10-20T08:17:52;35.26;32.09;47.63;;
67398;Laerm;57728;50.448;18.824;2022-10-20T08:19:53;36.36;31.41;53.87;;
67398;Laerm;57728;50.448;18.824;2022-10-20T08:21:56;36.36;31.28;53.83;;
67398;Laerm;57728;50.448;18.824;2022-10-20T08:23:57;35.95;31.53;50.54;;
67398;Laerm;57728;50.448;18.824;2022-10-20T08:25:58;35.27;31.53;55.87;;
67398;Laerm;57728;50.448;18.824;2022-10-20T08:28:00;38.06;31.70;52.65;;
67398;Laerm;57728;50.448;18.824;2022-10-20T08:30:04;34.56;31.21;45.57;;
67398;Laerm;57728;50.448;18.824;2022-10-20T08:32:05;35.20;31.25;45.00;;
67398;Laerm;57728;50.448;18.824;2022-10-20T08:34:10;34.02;31.04;52.38;;
67398;Laerm;57728;50.448;18.824;2022-10-20T08:36:13;34.36;31.25;50.63;;
67398;Laerm;57728;50.448;18.824;2022-10-20T08:38:15;34.70;31.59;40.25;;
67398;Laerm;57728;50.448;18.824;2022-10-20T08:40:25;33.61;31.13;48.09;;
67398;Laerm;57728;50.448;18.824;2022-10-20T08:42:27;35.12;31.19;48.83;;
67398;Laerm;57728;50.448;18.824;2022-10-20T08:44:33;33.58;31.36;46.34;;
67398;Laerm;57728;50.448;18.824;2022-10-20T08:46:40;34.99;31.13;54.02;;
67398;Laerm;57728;50.448;18.824;2022-10-20T08:48:44;35.65;31.27;48.20;;
67398;Laerm;57728;50.448;18.824;2022-10-20T08:50:50;37.87;31.40;62.64;;
67398;Laerm;57728;50.448;18.824;2022-10-20T08:52:58;34.44;31.18;52.42;;
67398;Laerm;57728;50.448;18.824;2022-10-20T08:55:04;34.53;30.98;50.94;;
67398;Laerm;57728;50.448;18.824;2022-10-20T08:57:26;36.33;31.21;54.57;;
67398;Laerm;57728;50.448;18.824;2022-10-20T08:59:37;33.57;31.42;43.75;;
67398;Laerm;57728;50.448;18.824;2022-10-20T09:01:39;33.62;31.30;50.67;;
67398;Laerm;57728;50.448;18.824;2022-10-20T09:03:41;36.91;31.57;51.40;;
67398;Laerm;57728;50.448;18.824;2022-10-20T09:05:56;35.38;31.29;51.18;;
67398;Laerm;57728;50.448;18.824;2022-10-20T09:07:59;34.94;31.05;47.62;;
67398;Laerm;57728;50.448;18.824;2022-10-20T09:10:31;35.55;31.46;51.91;;
67398;Laerm;57728;50.448;18.824;2022-10-20T09:12:41;35.55;31.42;49.75;;
67398;Laerm;57728;50.448;18.824;2022-10-20T09:14:43;34.01;31.41;49.49;;
67398;Laerm;57728;50.448;18.824;2022-10-20T09:16:45;34.17;31.59;40.65;;
67398;Laerm;57728;50.448;18.824;2022-10-20T09:18:57;34.67;31.87;49.99;;
67398;Laerm;57728;50.448;18.824;2022-10-20T09:21:15;34.83;31.61;44.61;;
67398;Laerm;57728;50.448;18.824;2022-10-20T09:23:45;34.43;31.51;44.39;;
67398;Laerm;57728;50.448;18.824;2022-10-20T09:25:50;37.44;31.28;52.75;;
67398;Laerm;57728;50.448;18.824;2022-10-20T09:27:55;34.81;31.46;44.20;;
67398;Laerm;57728;50.448;18.824;2022-10-20T09:29:56;35.26;31.69;46.46;;
67398;Laerm;57728;50.448;18.824;2022-10-20T09:31:59;35.21;32.37;47.32;;
67398;Laerm;57728;50.448;18.824;2022-10-20T09:34:00;34.14;31.98;45.38;;
67398;Laerm;57728;50.448;18.824;2022-10-20T09:36:16;34.67;31.70;49.54;;
67398;Laerm;57728;50.448;18.824;2022-10-20T09:38:27;35.00;31.67;45.09;;
67398;Laerm;57728;50.448;18.824;2022-10-20T09:40:30;36.48;31.32;48.69;;
67398;Laerm;57728;50.448;18.824;2022-10-20T09:42:47;32.95;30.97;40.26;;
67398;Laerm;57728;50.448;18.824;2022-10-20T09:45:06;36.19;31.21;50.12;;
67398;Laerm;57728;50.448;18.824;2022-10-20T09:47:16;33.39;30.99;45.98;;
67398;Laerm;57728;50.448;18.824;2022-10-20T09:49:29;33.66;30.95;44.24;;
67398;Laerm;57728;50.448;18.824;2022-10-20T09:51:46;37.14;31.11;51.96;;
67398;Laerm;57728;50.448;18.824;2022-10-20T09:55:52;36.09;31.09;47.07;;
67398;Laerm;57728;50.448;18.824;2022-10-20T09:57:59;35.90;30.88;46.90;;
67398;Laerm;57728;50.448;18.824;2022-10-20T10:00:03;35.78;31.28;44.89;;
67398;Laerm;57728;50.448;18.824;2022-10-20T10:04:31;34.87;30.89;48.67;;
67398;Laerm;57728;50.448;18.824;2022-10-20T10:08:45;34.92;30.92;55.29;;
67398;Laerm;57728;50.448;18.824;2022-10-20T10:11:02;46.17;31.22;74.63;;
67398;Laerm;57728;50.448;18.824;2022-10-20T10:13:03;32.05;30.69;39.12;;
67398;Laerm;57728;50.448;18.824;2022-10-20T10:19:36;33.63;31.05;42.31;;
67398;Laerm;57728;50.448;18.824;2022-10-20T10:21:50;36.45;30.65;48.14;;
67398;Laerm;57728;50.448;18.824;2022-10-20T10:24:02;34.93;30.99;45.77;;
67398;Laerm;57728;50.448;18.824;2022-10-20T10:28:39;34.65;31.08;45.59;;
67398;Laerm;57728;50.448;18.824;2022-10-20T10:30:42;37.22;31.00;50.69;;
67398;Laerm;57728;50.448;18.824;2022-10-20T10:32:46;33.59;30.88;43.11;;
67398;Laerm;57728;50.448;18.824;2022-10-20T10:35:11;37.09;31.17;48.77;;
67398;Laerm;57728;50.448;18.824;2022-10-20T10:37:16;34.38;31.40;42.60;;
67398;Laerm;57728;50.448;18.824;2022-10-20T10:39:17;36.47;31.25;53.43;;
67398;Laerm;57728;50.448;18.824;2022-10-20T10:46:30;34.01;31.01;50.41;;
67398;Laerm;57728;50.448;18.824;2022-10-20T10:51:10;33.64;30.73;47.75;;
67398;Laerm;57728;50.448;18.824;2022-10-20T10:53:41;35.30;30.98;49.31;;
67398;Laerm;57728;50.448;18.824;2022-10-20T10:56:12;33.27;30.94;43.21;;
67398;Laerm;57728;50.448;18.824;2022-10-20T11:01:17;37.14;30.79;47.01;;
67398;Laerm;57728;50.448;18.824;2022-10-20T11:13:33;32.62;31.08;40.66;;
67398;Laerm;57728;50.448;18.824;2022-10-20T11:26:18;33.51;30.71;45.63;;
67398;Laerm;57728;50.448;18.824;2022-10-20T11:28:47;33.52;31.12;41.66;;
67398;Laerm;57728;50.448;18.824;2022-10-20T11:30:50;33.97;31.35;43.99;;
67398;Laerm;57728;50.448;18.824;2022-10-20T11:35:49;35.27;31.16;45.96;;
67398;Laerm;57728;50.448;18.824;2022-10-20T11:40:23;35.28;31.14;47.84;;
67398;Laerm;57728;50.448;18.824;2022-10-20T11:44:53;34.85;31.28;44.49;;
67398;Laerm;57728;50.448;18.824;2022-10-20T11:47:36;33.81;31.09;52.15;;
67398;Laerm;57728;50.448;18.824;2022-10-20T11:49:40;34.74;31.48;48.40;;
67398;Laerm;57728;50.448;18.824;2022-10-20T11:57:32;51.78;31.29;62.31;;
67398;Laerm;57728;50.448;18.824;2022-10-20T12:00:06;60.30;32.01;68.33;;
67398;Laerm;57728;50.448;18.824;2022-10-20T12:08:18;35.71;31.60;42.87;;
67398;Laerm;57728;50.448;18.824;2022-10-20T12:15:52;44.09;30.94;64.07;;
67398;Laerm;57728;50.448;18.824;2022-10-20T12:18:37;34.70;31.20;52.65;;
67398;Laerm;57728;50.448;18.824;2022-10-20T12:20:58;34.46;31.14;43.81;;
67398;Laerm;57728;50.448;18.824;2022-10-20T12:23:02;34.69;31.07;48.59;;
67398;Laerm;57728;50.448;18.824;2022-10-20T12:37:17;34.43;31.07;49.15;;
67398;Laerm;57728;50.448;18.824;2022-10-20T12:39:21;34.29;31.38;48.92;;
67398;Laerm;57728;50.448;18.824;2022-10-20T12:41:34;35.72;31.37;44.47;;
67398;Laerm;57728;50.448;18.824;2022-10-20T12:44:00;34.36;31.78;49.97;;
67398;Laerm;57728;50.448;18.824;2022-10-20T12:46:08;35.62;31.61;45.59;;
67398;Laerm;57728;50.448;18.824;2022-10-20T12:48:23;37.19;31.51;48.03;;
67398;Laerm;57728;50.448;18.824;2022-10-20T12:52:39;36.13;31.35;52.21;;
67398;Laerm;57728;50.448;18.824;2022-10-20T12:54:43;33.91;30.89;46.46;;
67398;Laerm;57728;50.448;18.824;2022-10-20T12:56:45;35.29;31.42;51.45;;
67398;Laerm;57728;50.448;18.824;2022-10-20T13:01:25;38.54;31.49;56.19;;
67398;Laerm;57728;50.448;18.824;2022-10-20T13:05:45;37.95;31.56;56.80;;
67398;Laerm;57728;50.448;18.824;2022-10-20T13:09:54;40.54;31.60;63.42;;
67398;Laerm;57728;50.448;18.824;2022-10-20T13:12:02;40.15;31.47;61.16;;
67398;Laerm;57728;50.448;18.824;2022-10-20T13:16:20;40.17;31.62;60.74;;
67398;Laerm;57728;50.448;18.824;2022-10-20T13:18:30;41.87;31.31;66.27;;
67398;Laerm;57728;50.448;18.824;2022-10-20T13:23:01;36.01;31.95;49.32;;
67398;Laerm;57728;50.448;18.824;2022-10-20T13:27:35;39.94;31.45;63.46;;
67398;Laerm;57728;50.448;18.824;2022-10-20T13:29:39;37.29;31.74;53.24;;
67398;Laerm;57728;50.448;18.824;2022-10-20T13:34:31;35.17;31.70;50.06;;
67398;Laerm;57728;50.448;18.824;2022-10-20T13:36:54;35.97;31.05;54.26;;
67398;Laerm;57728;50.448;18.824;2022-10-20T13:42:03;35.44;31.94;47.23;;
67398;Laerm;57728;50.448;18.824;2022-10-20T13:49:13;35.67;31.95;45.95;;
67398;Laerm;57728;50.448;18.824;2022-10-20T13:51:24;36.24;32.06;49.11;;
67398;Laerm;57728;50.448;18.824;2022-10-20T13:53:35;36.06;31.79;45.40;;
67398;Laerm;57728;50.448;18.824;2022-10-20T13:58:22;36.18;31.89;49.47;;
67398;Laerm;57728;50.448;18.824;2022-10-20T14:00:32;35.43;31.90;50.07;;